Time;durP1;ratioP1;P1;durP2;ratioP2;P2;SDS_P1;SDS_P2;PMS_P1;PMS_P2;Temp;Humidity;BMP_temperature;BMP_pressure;BME280_temperature;BME280_humidity;BME280_pressure;Samples;Min_cycle;Max_cycle;Signal;HPM_P1;HPM_P2
2021/06/03 00:02:30;;;;;;;29.32;12.10;;;;;;;6.85;67.07;99762.24;2158620;82;21000;-64
2021/06/03 00:05:31;;;;;;;26.77;11.00;;;;;;;6.81;66.88;99766.72;2158687;82;20999;-64
2021/06/03 00:08:31;;;;;;;28.62;12.18;;;;;;;6.76;67.24;99757.70;2158629;81;20996;-62
2021/06/03 00:11:32;;;;;;;28.25;12.03;;;;;;;6.70;67.27;99759.66;2158545;82;21028;-62
2021/06/03 00:14:32;;;;;;;26.27;11.25;;;;;;;6.65;67.73;99761.11;2158531;82;21083;-63
2021/06/03 00:17:33;;;;;;;27.00;11.15;;;;;;;6.55;67.25;99768.34;2158692;82;20976;-64
2021/06/03 00:20:33;;;;;;;26.62;10.18;;;;;;;6.46;67.59;99763.84;2158707;82;21514;-64
2021/06/03 00:23:34;;;;;;;28.12;10.78;;;;;;;6.41;68.27;99768.73;2158661;82;21542;-64
2021/06/03 00:26:34;;;;;;;26.85;10.90;;;;;;;6.30;68.61;99767.34;2158624;82;20937;-64
2021/06/03 00:29:35;;;;;;;26.77;11.15;;;;;;;6.26;68.20;99768.32;2158600;82;20953;-64
2021/06/03 00:32:35;;;;;;;31.10;11.45;;;;;;;6.22;68.55;99770.14;2158749;82;20980;-64
2021/06/03 00:35:36;;;;;;;30.05;11.22;;;;;;;6.24;68.50;99767.91;2158847;81;21028;-65
2021/06/03 00:38:36;;;;;;;26.10;11.38;;;;;;;6.17;68.81;99766.38;2158716;82;20956;-65
2021/06/03 00:41:37;;;;;;;32.15;11.22;;;;;;;6.10;68.86;99763.99;2158668;82;20988;-64
2021/06/03 00:44:37;;;;;;;26.95;10.65;;;;;;;6.07;69.16;99767.53;2158739;82;21052;-64
2021/06/03 00:47:37;;;;;;;26.42;10.23;;;;;;;6.04;69.21;99768.92;2158571;82;20936;-64
2021/06/03 00:50:38;;;;;;;26.87;11.80;;;;;;;6.02;69.29;99766.78;2158310;81;20981;-65
2021/06/03 00:53:39;;;;;;;28.83;11.73;;;;;;;6.01;69.37;99767.25;2158559;82;20948;-65
2021/06/03 00:56:39;;;;;;;25.90;11.05;;;;;;;6.03;69.64;99771.11;2158789;82;20972;-64
2021/06/03 00:59:40;;;;;;;28.83;11.53;;;;;;;6.01;69.53;99768.55;2158780;82;21016;-64
2021/06/03 01:02:40;;;;;;;28.27;11.78;;;;;;;5.94;69.18;99764.83;2158860;82;20968;-64
2021/06/03 01:05:41;;;;;;;26.73;11.33;;;;;;;5.86;69.39;99763.72;2158640;82;20987;-65
2021/06/03 01:08:41;;;;;;;28.10;11.43;;;;;;;5.84;69.83;99766.81;2158322;81;21035;-65
2021/06/03 01:11:42;;;;;;;28.62;10.35;;;;;;;5.89;69.74;99771.02;2158636;82;21848;-61
2021/06/03 01:14:43;;;;;;;25.68;9.50;;;;;;;5.84;70.22;99770.72;2158583;82;20960;-64
2021/06/03 01:17:43;;;;;;;24.67;10.03;;;;;;;5.83;70.70;99775.52;2158848;82;21028;-64
2021/06/03 01:20:44;;;;;;;30.05;13.85;;;;;;;5.86;70.84;99777.61;2158905;82;20972;-64
2021/06/03 01:23:44;;;;;;;26.55;11.38;;;;;;;5.80;70.78;99775.60;2158717;82;21019;-62
2021/06/03 01:26:44;;;;;;;26.17;11.50;;;;;;;5.70;70.79;99777.58;2158642;82;20972;-62
2021/06/03 01:29:45;;;;;;;24.30;10.65;;;;;;;5.65;70.94;99784.22;2158525;82;21012;-63
2021/06/03 01:32:46;;;;;;;23.45;9.65;;;;;;;5.54;70.48;99777.97;2158641;82;21506;-64
2021/06/03 01:35:46;;;;;;;22.52;9.18;;;;;;;5.51;70.85;99785.02;2158677;82;21080;-64
2021/06/03 01:38:47;;;;;;;29.48;7.90;;;;;;;5.47;70.96;99786.82;2158910;82;20976;-64
2021/06/03 01:41:47;;;;;;;20.40;6.90;;;;;;;5.37;71.00;99786.22;2158865;82;20999;-64
2021/06/03 01:44:48;;;;;;;24.02;10.08;;;;;;;5.34;70.91;99785.00;2158553;82;20991;-64
2021/06/03 01:47:48;;;;;;;23.40;9.60;;;;;;;5.33;70.82;99788.91;2158809;82;20968;-64
2021/06/03 01:50:49;;;;;;;29.60;11.35;;;;;;;5.29;70.51;99790.74;2158916;82;21487;-64
2021/06/03 01:53:49;;;;;;;26.75;10.58;;;;;;;5.20;72.59;99815.23;2158272;82;20973;-63
2021/06/03 01:56:50;;;;;;;28.40;10.78;;;;;;;5.08;72.29;99808.99;2158666;82;21466;-63
2021/06/03 01:59:50;;;;;;;28.27;11.00;;;;;;;5.07;71.62;99804.70;2158717;82;21066;-65
2021/06/03 02:02:51;;;;;;;27.50;11.75;;;;;;;5.20;71.87;99802.22;2158934;82;21063;-62
2021/06/03 02:05:51;;;;;;;29.02;11.85;;;;;;;5.17;70.95;99810.10;2158728;82;21035;-60
2021/06/03 02:08:52;;;;;;;34.85;11.88;;;;;;;5.08;70.72;99799.89;2181083;81;21007;-62
2021/06/03 02:11:52;;;;;;;30.20;12.33;;;;;;;4.96;71.60;99802.79;2188667;81;21039;-64
2021/06/03 02:14:53;;;;;;;28.73;12.65;;;;;;;4.94;71.43;99801.95;2188843;81;21461;-62
2021/06/03 02:17:53;;;;;;;25.45;10.58;;;;;;;4.90;71.58;99803.78;2188735;81;20975;-61
2021/06/03 02:20:53;;;;;;;28.32;10.63;;;;;;;4.90;71.65;99806.80;2189067;81;20935;-62
2021/06/03 02:23:54;;;;;;;27.70;11.50;;;;;;;4.94;71.82;99809.75;2188884;81;21031;-62
2021/06/03 02:26:54;;;;;;;32.10;12.50;;;;;;;5.04;71.60;99807.34;2188885;81;20983;-60
2021/06/03 02:29:55;;;;;;;30.50;12.50;;;;;;;5.03;71.53;99809.11;2188769;81;20967;-61
2021/06/03 02:32:56;;;;;;;28.95;12.33;;;;;;;5.03;71.65;99808.27;2188668;81;21458;-62
2021/06/03 02:35:56;;;;;;;29.80;13.78;;;;;;;5.05;71.56;99810.37;2188660;81;21522;-60
2021/06/03 02:38:57;;;;;;;32.73;12.73;;;;;;;5.13;71.95;99809.76;2188960;81;20975;-62
2021/06/03 02:41:57;;;;;;;30.02;11.25;;;;;;;5.13;71.65;99811.05;2188609;81;21067;-62
2021/06/03 02:44:58;;;;;;;22.62;9.03;;;;;;;5.05;71.36;99812.97;2189016;81;20963;-63
2021/06/03 02:47:58;;;;;;;25.40;9.93;;;;;;;4.99;71.66;99807.91;2188899;81;20974;-61
2021/06/03 02:50:59;;;;;;;28.52;11.50;;;;;;;5.11;72.16;99811.52;2189026;81;20928;-64
2021/06/03 02:53:59;;;;;;;27.55;12.07;;;;;;;5.10;71.65;99810.26;2188815;81;20955;-63
2021/06/03 02:56:59;;;;;;;25.65;11.10;;;;;;;5.07;71.65;99809.91;2188763;81;21510;-62
2021/06/03 03:00:00;;;;;;;24.30;9.75;;;;;;;5.09;71.87;99812.47;2188552;81;21568;-64
2021/06/03 03:03:00;;;;;;;23.75;8.35;;;;;;;5.01;71.87;99814.80;2188760;81;20998;-61
2021/06/03 03:06:01;;;;;;;23.95;9.18;;;;;;;4.94;72.18;99813.65;2188812;81;21022;-63
2021/06/03 03:09:01;;;;;;;24.70;9.65;;;;;;;4.90;72.53;99813.30;2188637;81;21070;-65
2021/06/03 03:12:02;;;;;;;30.30;10.85;;;;;;;4.86;72.40;99822.47;2188777;81;20975;-64
2021/06/03 03:15:02;;;;;;;31.55;11.28;;;;;;;4.90;72.25;99819.38;2188811;81;21570;-64
2021/06/03 03:18:03;;;;;;;26.80;11.22;;;;;;;4.99;72.32;99818.31;2188627;81;21465;-62
2021/06/03 03:21:03;;;;;;;27.27;12.05;;;;;;;5.05;72.22;99818.63;2188654;81;20958;-61
2021/06/03 03:24:04;;;;;;;30.48;11.83;;;;;;;5.10;72.17;99819.36;2188359;81;21574;-64
2021/06/03 03:27:05;;;;;;;29.48;12.37;;;;;;;5.32;72.19;99827.09;2188333;81;21072;-65
2021/06/03 03:30:05;;;;;;;28.85;13.08;;;;;;;5.51;71.92;99820.98;2188227;80;20966;-63
2021/06/03 03:33:06;;;;;;;27.20;12.15;;;;;;;5.63;71.57;99819.86;2186411;81;20993;-62
2021/06/03 03:36:07;;;;;;;31.50;12.10;;;;;;;5.69;71.40;99814.94;2187675;81;20932;-62
2021/06/03 03:39:08;;;;;;;27.10;11.50;;;;;;;5.77;71.32;99816.88;2189020;81;20980;-63
2021/06/03 03:45:12;;;;;;;25.57;10.10;;;;;;;5.95;71.09;99825.98;2163722;81;21525;-60
2021/06/03 03:48:14;;;;;;;25.17;10.80;;;;;;;6.11;71.12;99822.56;2189271;81;21054;-60
2021/06/03 03:51:15;;;;;;;25.93;12.10;;;;;;;6.27;70.64;99820.39;2189442;81;21003;-63
2021/06/03 03:54:17;;;;;;;28.20;11.97;;;;;;;6.39;70.86;99821.36;2187013;80;21563;-59
2021/06/03 03:57:19;;;;;;;30.65;12.20;;;;;;;6.61;70.94;99822.48;2186705;81;21033;-61
2021/06/03 04:00:20;;;;;;;31.37;13.15;;;;;;;6.84;70.70;99830.51;2186414;81;21092;-63
2021/06/03 04:03:20;;;;;;;28.07;13.50;;;;;;;7.21;71.09;99823.30;2186515;81;21076;-64
2021/06/03 04:06:21;;;;;;;28.73;12.20;;;;;;;7.55;70.91;99813.94;2188349;80;20971;-63
2021/06/03 04:09:22;;;;;;;28.87;13.13;;;;;;;7.86;70.59;99818.59;2181109;81;21039;-61
2021/06/03 04:12:23;;;;;;;32.15;14.10;;;;;;;8.13;70.36;99820.70;2178679;82;20988;-65
2021/06/03 04:15:23;;;;;;;33.00;14.25;;;;;;;8.49;70.00;99816.41;2178623;82;21047;-65
2021/06/03 04:18:24;;;;;;;31.73;14.25;;;;;;;8.85;69.51;99826.44;2178884;81;20963;-64
2021/06/03 04:21:24;;;;;;;32.05;15.40;;;;;;;9.21;69.13;99821.12;2178685;82;20994;-62
2021/06/03 04:24:24;;;;;;;36.03;16.93;;;;;;;9.53;68.90;99823.77;2178829;82;20995;-65
2021/06/03 04:27:25;;;;;;;32.83;16.40;;;;;;;9.81;68.76;99823.92;2178762;82;20991;-66
2021/06/03 04:30:26;;;;;;;31.75;15.83;;;;;;;10.13;68.13;99833.49;2178575;82;21024;-67
2021/06/03 04:33:26;;;;;;;35.38;17.20;;;;;;;10.45;67.97;99830.82;2178732;82;21015;-68
2021/06/03 04:36:27;;;;;;;37.88;18.23;;;;;;;10.71;67.76;99826.17;2179013;81;20936;-67
2021/06/03 04:39:27;;;;;;;31.70;16.40;;;;;;;10.90;67.28;99822.23;2178768;82;20982;-67
2021/06/03 04:42:28;;;;;;;32.93;17.42;;;;;;;11.08;66.83;99818.75;2178708;82;20944;-64
2021/06/03 04:45:28;;;;;;;32.83;17.90;;;;;;;11.25;67.04;99830.24;2178699;82;21459;-66
2021/06/03 04:48:29;;;;;;;31.65;16.60;;;;;;;11.51;67.10;99834.70;2178668;82;21542;-67
2021/06/03 04:51:29;;;;;;;38.88;19.42;;;;;;;11.89;67.32;99838.51;2178712;82;20972;-66
2021/06/03 04:54:30;;;;;;;35.13;18.70;;;;;;;12.29;66.40;99833.87;2178571;82;20991;-66
2021/06/03 04:57:30;;;;;;;32.20;18.77;;;;;;;12.63;66.29;99834.73;2179009;82;21030;-65
2021/06/03 05:00:31;;;;;;;35.95;18.27;;;;;;;12.91;65.32;99834.08;2178758;81;21023;-68
2021/06/03 05:03:31;;;;;;;33.55;18.20;;;;;;;13.07;64.49;99838.50;2178810;82;21007;-68
2021/06/03 05:06:31;;;;;;;35.52;18.37;;;;;;;13.22;64.31;99840.30;2178746;82;20933;-68
2021/06/03 05:09:32;;;;;;;32.67;17.65;;;;;;;13.42;64.24;99841.84;2183523;81;21023;-68
2021/06/03 05:12:33;;;;;;;32.15;16.60;;;;;;;13.62;63.51;99835.88;2185601;81;21031;-70
2021/06/03 05:15:33;;;;;;;32.20;17.70;;;;;;;13.85;62.86;99842.48;2185609;81;21027;-68
2021/06/03 05:18:33;;;;;;;32.33;15.68;;;;;;;14.09;63.22;99844.12;2185709;81;21032;-69
2021/06/03 05:21:34;;;;;;;31.85;16.15;;;;;;;14.40;62.76;99840.97;2185943;81;21011;-66
2021/06/03 05:24:35;;;;;;;33.45;17.75;;;;;;;14.56;62.23;99836.44;2186007;81;21007;-68
2021/06/03 05:27:36;;;;;;;28.55;15.30;;;;;;;14.62;61.69;99842.33;2185717;81;20970;-68
2021/06/03 05:30:37;;;;;;;29.72;15.25;;;;;;;14.70;61.31;99845.36;2185627;81;21534;-68
2021/06/03 05:33:37;;;;;;;31.82;15.75;;;;;;;14.78;61.27;99849.67;2185689;81;20983;-65
2021/06/03 05:36:38;;;;;;;29.15;15.85;;;;;;;15.00;61.77;99853.15;2185976;81;20999;-64
2021/06/03 05:39:38;;;;;;;30.75;15.48;;;;;;;15.36;61.37;99848.27;2186010;81;21008;-66
2021/06/03 05:42:39;;;;;;;30.15;15.32;;;;;;;15.80;60.77;99847.16;2185864;81;20968;-65
2021/06/03 05:45:40;;;;;;;26.05;13.50;;;;;;;16.12;59.94;99845.48;2185328;81;21538;-69
2021/06/03 05:48:40;;;;;;;26.12;13.05;;;;;;;16.38;59.34;99846.83;2185990;81;21463;-65
2021/06/03 05:51:41;;;;;;;26.50;12.88;;;;;;;16.52;58.57;99843.20;2185946;81;20999;-64
2021/06/03 05:54:41;;;;;;;26.73;12.95;;;;;;;16.57;57.85;99844.58;2186137;81;20980;-65
2021/06/03 05:57:42;;;;;;;25.37;11.85;;;;;;;16.74;58.51;99845.21;2185997;81;20967;-65
2021/06/03 06:00:42;;;;;;;24.37;11.88;;;;;;;16.96;56.97;99846.72;2185848;81;20944;-63
2021/06/03 06:06:45;;;;;;;24.85;10.82;;;;;;;17.47;56.30;99840.91;2158088;81;20980;-64
2021/06/03 06:09:45;;;;;;;22.05;10.25;;;;;;;17.69;54.21;99842.80;2183456;81;21043;-66
2021/06/03 06:12:46;;;;;;;25.00;10.20;;;;;;;18.04;55.86;99843.30;2183435;81;21034;-65
2021/06/03 06:15:46;;;;;;;24.05;9.93;;;;;;;18.56;54.15;99836.25;2183543;81;20991;-63
2021/06/03 06:18:47;;;;;;;23.12;9.95;;;;;;;18.73;53.56;99837.59;2183624;81;21538;-62
2021/06/03 06:21:47;;;;;;;22.30;10.03;;;;;;;19.03;53.33;99835.16;2184367;81;21023;-64
2021/06/03 06:24:48;;;;;;;23.62;9.98;;;;;;;19.41;52.08;99831.72;2185679;81;21063;-66
2021/06/03 06:27:48;;;;;;;22.10;9.80;;;;;;;19.65;51.36;99836.83;2185812;81;20987;-67
2021/06/03 06:30:49;;;;;;;21.25;8.40;;;;;;;19.69;51.16;99838.73;2185799;81;21035;-63
2021/06/03 06:33:50;;;;;;;22.65;8.95;;;;;;;19.68;49.60;99835.70;2185445;81;21007;-66
2021/06/03 06:36:50;;;;;;;22.40;9.05;;;;;;;19.85;50.65;99844.98;2185636;81;21398;-64
2021/06/03 06:39:51;;;;;;;20.15;8.18;;;;;;;20.14;49.30;99839.02;2185518;81;21047;-66
2021/06/03 06:45:54;;;;;;;20.82;7.75;;;;;;;20.41;47.61;99831.81;2157224;81;20999;-66
2021/06/03 06:48:54;;;;;;;20.70;7.45;;;;;;;20.64;48.16;99828.48;2186080;81;20987;-66
2021/06/03 06:51:55;;;;;;;19.25;6.95;;;;;;;20.91;46.40;99833.74;2186052;81;20976;-66
2021/06/03 06:54:55;;;;;;;17.73;5.97;;;;;;;20.90;46.91;99825.37;2186207;81;20967;-67
2021/06/03 06:57:56;;;;;;;18.82;5.60;;;;;;;21.21;46.06;99836.00;2185985;81;20968;-66
2021/06/03 07:00:56;;;;;;;16.32;5.40;;;;;;;21.58;46.12;99824.70;2186084;81;21040;-67
2021/06/03 07:03:57;;;;;;;19.95;4.37;;;;;;;21.92;43.13;99819.77;2185886;81;21482;-67
2021/06/03 07:06:57;;;;;;;11.90;4.13;;;;;;;22.13;43.54;99824.08;2185852;81;21022;-67
2021/06/03 07:09:57;;;;;;;11.37;3.70;;;;;;;22.16;42.29;99831.80;2185656;81;21027;-67
2021/06/03 07:12:58;;;;;;;12.73;3.80;;;;;;;22.27;41.06;99828.13;2185877;81;20976;-65
2021/06/03 07:15:58;;;;;;;15.30;3.50;;;;;;;22.27;40.41;99828.96;2185930;81;20940;-63
2021/06/03 07:18:59;;;;;;;11.90;3.43;;;;;;;22.31;36.14;99832.17;2185927;81;20983;-63
2021/06/03 07:21:59;;;;;;;11.00;3.50;;;;;;;22.37;38.06;99831.64;2185959;81;20952;-68
2021/06/03 07:25:00;;;;;;;12.07;3.47;;;;;;;22.41;38.23;99834.85;2185818;81;21009;-65
2021/06/03 07:28:00;;;;;;;14.30;4.00;;;;;;;22.41;37.73;99841.06;2186142;81;21008;-64
2021/06/03 07:31:01;;;;;;;12.10;3.90;;;;;;;22.52;36.40;99834.67;2185878;81;21039;-67
2021/06/03 07:34:01;;;;;;;13.90;4.27;;;;;;;22.58;36.85;99830.58;2185863;81;21046;-64
2021/06/03 07:37:02;;;;;;;12.13;3.63;;;;;;;22.56;36.71;99837.41;2185912;81;20992;-66
2021/06/03 07:40:02;;;;;;;13.63;4.10;;;;;;;22.67;34.76;99832.39;2186030;81;21471;-66
2021/06/03 07:43:02;;;;;;;13.33;3.67;;;;;;;22.67;36.02;99835.06;2185982;81;21493;-65
2021/06/03 07:46:03;;;;;;;12.83;3.43;;;;;;;22.78;34.04;99840.70;2185975;81;21545;-64
2021/06/03 07:49:05;;;;;;;9.00;3.17;;;;;;;22.88;35.38;99833.47;2186012;81;21018;-63
2021/06/03 07:52:05;;;;;;;;;;;;;;;23.28;33.00;99836.80;2188218;81;20952;-64
2021/06/03 07:55:06;;;;;;;10.10;3.10;;;;;;;23.62;35.49;99835.63;2185772;81;20104;-64
2021/06/03 07:58:06;;;;;;;11.83;3.40;;;;;;;24.11;34.32;99831.20;2186142;81;21024;-64
2021/06/03 08:01:07;;;;;;;9.73;2.90;;;;;;;24.20;30.52;99834.77;2185878;81;20975;-64
2021/06/03 08:04:07;;;;;;;10.20;3.13;;;;;;;24.23;31.72;99833.63;2185920;81;21047;-66
2021/06/03 08:07:07;;;;;;;12.77;3.40;;;;;;;24.24;31.62;99825.42;2185996;81;20971;-65
2021/06/03 08:10:08;;;;;;;9.07;3.23;;;;;;;24.32;30.82;99828.16;2181182;81;20987;-64
2021/06/03 08:13:08;;;;;;;9.83;3.27;;;;;;;24.27;30.57;99826.95;2178847;82;21026;-64
2021/06/03 08:16:09;;;;;;;10.60;3.20;;;;;;;24.29;29.90;99824.94;2178990;82;20960;-65
2021/06/03 08:19:09;;;;;;;9.20;2.80;;;;;;;24.18;31.62;99829.57;2179018;82;21396;-64
2021/06/03 08:22:10;;;;;;;12.80;3.37;;;;;;;24.47;28.95;99826.23;2179058;82;20981;-65
2021/06/03 08:25:10;;;;;;;13.73;3.10;;;;;;;24.56;28.38;99823.92;2178923;82;21023;-67
2021/06/03 08:28:11;;;;;;;13.57;2.90;;;;;;;24.19;27.75;99825.91;2178515;82;21003;-64
2021/06/03 08:31:11;;;;;;;10.90;3.23;;;;;;;23.85;27.83;99826.62;2178669;82;21063;-64
2021/06/03 08:34:12;;;;;;;10.43;3.40;;;;;;;23.65;28.69;99833.98;2179137;82;20956;-64
2021/06/03 08:37:12;;;;;;;12.47;3.60;;;;;;;23.87;28.74;99820.63;2178853;82;20960;-67
2021/06/03 08:40:13;;;;;;;14.07;3.27;;;;;;;23.64;29.46;99832.29;2178874;82;20972;-67
2021/06/03 08:43:13;;;;;;;11.67;3.20;;;;;;;23.86;27.31;99824.33;2179055;82;20960;-67
2021/06/03 08:46:14;;;;;;;10.97;3.03;;;;;;;23.89;27.92;99819.64;2178971;82;20996;-67
2021/06/03 08:49:14;;;;;;;12.13;3.20;;;;;;;23.18;28.03;99828.33;2178988;82;20956;-68
2021/06/03 08:52:15;;;;;;;9.63;3.30;;;;;;;22.77;28.85;99832.32;2178952;82;20977;-67
2021/06/03 08:58:17;;;;;;;9.38;2.90;;;;;;;23.46;26.55;99822.94;2148424;82;21067;-68
2021/06/03 09:01:18;;;;;;;12.00;3.00;;;;;;;23.82;28.23;99814.88;2178631;82;20972;-68
2021/06/03 09:04:19;;;;;;;11.30;3.33;;;;;;;24.40;26.44;99808.59;2178820;82;20999;-67
2021/06/03 09:07:20;;;;;;;11.08;2.98;;;;;;;24.98;28.18;99815.57;2178309;82;21048;-68
2021/06/03 09:10:21;;;;;;;10.27;3.40;;;;;;;25.46;27.26;99807.81;2183084;81;21565;-67
2021/06/03 09:13:21;;;;;;;12.90;3.20;;;;;;;25.19;28.23;99815.14;2185706;81;21581;-68
2021/06/03 09:16:22;;;;;;;12.47;3.27;;;;;;;25.16;28.32;99813.61;2185856;81;21503;-65
2021/06/03 09:19:22;;;;;;;18.60;5.10;;;;;;;24.97;26.50;99815.23;2185773;81;20972;-66
2021/06/03 09:22:22;;;;;;;10.17;3.27;;;;;;;24.76;27.94;99808.45;2185806;81;20980;-64
2021/06/03 09:25:23;;;;;;;9.13;2.90;;;;;;;24.78;26.69;99801.07;2185538;81;20976;-64
2021/06/03 09:28:23;;;;;;;12.13;3.33;;;;;;;24.68;27.84;99811.09;2185890;81;21011;-66
2021/06/03 09:31:25;;;;;;;11.90;2.97;;;;;;;25.03;28.06;99811.40;2185774;81;20980;-64
2021/06/03 09:34:26;;;;;;;12.78;3.55;;;;;;;25.71;28.08;99801.96;2185618;81;21059;-65
2021/06/03 09:37:27;;;;;;;18.13;3.10;;;;;;;26.19;28.43;99798.06;2186065;81;21478;-65
2021/06/03 09:40:27;;;;;;;16.63;3.43;;;;;;;26.55;26.32;99795.80;2185815;81;21518;-68
2021/06/03 09:43:28;;;;;;;10.83;3.20;;;;;;;27.02;27.29;99794.59;2185874;81;21462;-66
2021/06/03 09:46:28;;;;;;;9.53;3.13;;;;;;;27.55;27.42;99784.00;2185957;81;21479;-65
2021/06/03 09:49:28;;;;;;;9.80;3.00;;;;;;;28.04;26.60;99776.83;2185948;81;21467;-65
2021/06/03 09:52:29;;;;;;;9.83;2.87;;;;;;;28.00;25.75;99785.81;2185799;81;21042;-64
2021/06/03 09:55:32;;;;;;;8.10;2.93;;;;;;;27.13;24.99;99789.63;2185928;81;20936;-66
2021/06/03 09:58:32;;;;;;;12.18;2.95;;;;;;;26.41;26.39;99796.00;2157048;81;21585;-67
2021/06/03 10:01:32;;;;;;;9.50;3.03;;;;;;;26.62;26.09;99792.73;2186053;81;20979;-67
2021/06/03 10:04:32;;;;;;;14.20;3.27;;;;;;;26.52;23.66;99790.77;2185770;81;20995;-66
2021/06/03 10:07:33;;;;;;;9.80;3.00;;;;;;;26.75;26.19;99795.39;2186108;81;21035;-66
2021/06/03 10:10:34;;;;;;;9.17;3.00;;;;;;;26.24;25.30;99797.06;2181488;81;21008;-68
2021/06/03 10:13:35;;;;;;;11.97;2.98;;;;;;;26.18;27.60;99798.58;2178826;82;21015;-67
2021/06/03 10:16:36;;;;;;;9.90;2.63;;;;;;;25.85;24.63;99801.28;2178644;82;21015;-67
2021/06/03 10:19:36;;;;;;;9.03;2.83;;;;;;;25.10;25.72;99804.88;2178946;82;21019;-68
2021/06/03 10:22:37;;;;;;;13.40;2.90;;;;;;;24.77;24.96;99802.58;2179055;82;21451;-67
2021/06/03 10:25:37;;;;;;;7.97;2.83;;;;;;;25.21;25.12;99797.87;2178963;82;21482;-65
2021/06/03 10:28:39;;;;;;;8.77;3.10;;;;;;;25.94;25.97;99785.47;2179121;82;21447;-66
2021/06/03 10:31:40;;;;;;;9.08;2.85;;;;;;;26.01;26.43;99792.91;2178840;82;21039;-68
2021/06/03 10:34:40;;;;;;;11.50;2.90;;;;;;;26.14;25.47;99783.80;2179240;82;20991;-68
2021/06/03 10:37:41;;;;;;;8.60;2.98;;;;;;;26.42;26.08;99793.65;2178664;82;21059;-65
2021/06/03 10:40:42;;;;;;;8.35;2.70;;;;;;;26.91;25.67;99793.13;2178503;81;21040;-67
2021/06/03 10:43:42;;;;;;;8.43;2.63;;;;;;;27.45;25.96;99786.41;2178893;82;21435;-68
2021/06/03 10:46:43;;;;;;;5.73;2.43;;;;;;;28.13;25.59;99784.33;2178883;82;21019;-68
2021/06/03 10:49:43;;;;;;;5.97;2.60;;;;;;;28.75;23.93;99778.23;2178972;82;20933;-68
2021/06/03 10:52:44;;;;;;;10.17;3.00;;;;;;;29.08;24.17;99781.34;2179067;82;20968;-69
2021/06/03 10:55:44;;;;;;;10.43;3.00;;;;;;;29.47;23.09;99777.91;2178938;82;20976;-68
2021/06/03 10:58:44;;;;;;;8.20;2.67;;;;;;;29.73;24.08;99776.77;2179095;82;20948;-68
2021/06/03 11:01:45;;;;;;;9.07;2.73;;;;;;;30.02;23.34;99773.58;2179214;82;20963;-69
2021/06/03 11:04:45;;;;;;;8.73;2.93;;;;;;;30.19;20.90;99771.94;2178923;82;20968;-69
2021/06/03 11:07:46;;;;;;;9.13;2.50;;;;;;;29.73;23.18;99767.84;2179030;82;21455;-68
2021/06/03 11:10:46;;;;;;;10.90;2.97;;;;;;;29.59;21.39;99772.29;2182962;81;21735;-66
2021/06/03 11:13:47;;;;;;;12.00;3.13;;;;;;;29.44;23.37;99775.58;2185846;81;20983;-67
2021/06/03 11:16:48;;;;;;;13.60;2.97;;;;;;;29.30;21.00;99777.33;2185945;81;20987;-67
2021/06/03 11:19:49;;;;;;;11.45;2.92;;;;;;;28.47;21.82;99778.38;2185896;81;20984;-66
2021/06/03 11:22:50;;;;;;;7.53;2.80;;;;;;;28.07;22.37;99763.50;2186014;81;20936;-67
2021/06/03 11:25:50;;;;;;;9.27;2.97;;;;;;;27.68;21.90;99769.39;2185880;81;20960;-67
2021/06/03 11:28:50;;;;;;;12.47;3.20;;;;;;;27.03;22.99;99771.53;2186040;81;21466;-67
2021/06/03 11:34:54;;;;;;;9.40;3.15;;;;;;;27.40;24.45;99734.95;2156741;81;20983;-67
2021/06/03 11:37:54;;;;;;;8.38;2.80;;;;;;;28.23;22.69;99763.34;2185919;81;21012;-65
2021/06/03 11:40:55;;;;;;;6.80;2.75;;;;;;;28.19;21.26;99759.34;2185463;81;21026;-65
2021/06/03 11:43:55;;;;;;;7.93;3.17;;;;;;;27.47;22.67;99759.33;2186013;81;20999;-66
2021/06/03 11:46:56;;;;;;;9.80;3.20;;;;;;;27.64;23.40;99762.69;2185886;81;21024;-66
2021/06/03 11:49:57;;;;;;;6.30;2.60;;;;;;;27.77;22.28;99760.72;2185389;81;20975;-68
2021/06/03 11:55:59;;;;;;;10.75;2.90;;;;;;;28.38;23.57;99753.05;2157237;81;21514;-66
2021/06/03 11:59:02;;;;;;;9.93;3.10;;;;;;;28.77;23.46;99751.91;2186021;81;20932;-67
2021/06/03 12:02:02;;;;;;;6.87;2.92;;;;;;;29.45;24.05;99750.23;2157109;81;21490;-66
2021/06/03 12:05:03;;;;;;;10.13;2.80;;;;;;;29.78;21.75;99751.84;2185958;81;21003;-68
2021/06/03 12:08:03;;;;;;;9.40;3.30;;;;;;;29.40;21.77;99741.37;2185940;81;21067;-68
2021/06/03 12:11:03;;;;;;;22.60;9.10;;;;;;;29.67;23.39;99741.08;2181331;81;21039;-66
2021/06/03 12:14:04;;;;;;;17.30;5.20;;;;;;;30.05;22.69;99742.61;2178926;82;20973;-68
2021/06/03 12:17:04;;;;;;;13.40;3.00;;;;;;;30.34;21.24;99733.42;2178829;82;20980;-68
2021/06/03 12:20:05;;;;;;;8.20;2.60;;;;;;;30.74;20.63;99734.12;2179118;82;21427;-67
2021/06/03 12:23:05;;;;;;;8.10;2.70;;;;;;;30.69;21.64;99732.03;2178935;82;21210;-68
2021/06/03 12:26:06;;;;;;;13.53;2.90;;;;;;;30.49;21.14;99735.19;2178930;82;20980;-67
2021/06/03 12:29:07;;;;;;;10.63;3.10;;;;;;;29.70;20.77;99736.63;2178708;82;21011;-66
2021/06/03 12:32:07;;;;;;;13.17;2.97;;;;;;;28.71;21.28;99735.95;2179057;82;20995;-67
2021/06/03 12:35:07;;;;;;;9.07;2.80;;;;;;;27.76;22.76;99734.81;2178531;82;21016;-67
2021/06/03 12:38:08;;;;;;;10.57;3.00;;;;;;;26.97;22.78;99744.81;2178989;82;20964;-68
2021/06/03 12:44:11;;;;;;;9.45;2.87;;;;;;;25.64;24.70;99737.31;2148570;82;21000;-67
2021/06/03 12:47:11;;;;;;;32.37;3.43;;;;;;;25.25;24.59;99740.64;2178967;82;20945;-68
2021/06/03 12:50:12;;;;;;;8.83;3.17;;;;;;;25.10;25.12;99734.25;2179052;82;20966;-67
2021/06/03 12:53:13;;;;;;;10.80;2.87;;;;;;;25.47;26.13;99731.11;2178714;82;20968;-68
2021/06/03 12:56:14;;;;;;;11.53;3.03;;;;;;;26.35;25.34;99727.27;2178874;82;20956;-69
2021/06/03 12:59:14;;;;;;;10.97;3.00;;;;;;;26.93;22.98;99713.06;2178803;82;21034;-69
2021/06/03 13:02:15;;;;;;;15.47;3.00;;;;;;;27.38;23.81;99718.13;2178848;82;21053;-68
2021/06/03 13:05:16;;;;;;;10.70;2.70;;;;;;;27.77;22.65;99709.52;2178810;82;21498;-68
2021/06/03 13:08:17;;;;;;;8.63;2.62;;;;;;;28.40;22.90;99703.27;2178733;82;21003;-68
2021/06/03 13:11:18;;;;;;;10.93;2.83;;;;;;;28.40;22.73;99707.83;2182856;81;20995;-68
2021/06/03 13:14:18;;;;;;;9.50;2.93;;;;;;;28.07;22.79;99709.05;2185826;81;21024;-68
2021/06/03 13:17:20;;;;;;;7.57;2.70;;;;;;;27.71;22.93;99704.88;2185959;81;21470;-68
2021/06/03 13:20:22;;;;;;;;;;;;;;;27.33;22.02;99702.17;2188197;81;21434;-67
2021/06/03 13:23:22;;;;;;;;;;;;;;;26.79;23.18;99699.84;2188286;81;20120;-68
2021/06/03 13:26:23;;;;;;;11.43;3.00;;;;;;;26.29;24.61;99705.95;2185864;81;20105;-68
2021/06/03 13:29:23;;;;;;;9.70;2.60;;;;;;;25.86;24.20;99707.58;2185836;81;21027;-69
2021/06/03 13:32:24;;;;;;;9.87;2.97;;;;;;;26.48;23.31;99705.20;2186055;81;20999;-68
2021/06/03 13:35:25;;;;;;;7.47;3.05;;;;;;;27.24;25.59;99707.62;2185698;81;20965;-68
2021/06/03 13:38:25;;;;;;;6.13;2.93;;;;;;;27.74;23.75;99694.58;2185930;81;21465;-69
2021/06/03 13:41:26;;;;;;;8.13;2.97;;;;;;;27.96;22.48;99690.64;2185945;81;20984;-68
2021/06/03 13:44:26;;;;;;;7.40;2.90;;;;;;;28.39;21.61;99691.31;2185955;81;20979;-69
2021/06/03 13:47:27;;;;;;;11.37;3.30;;;;;;;28.81;21.71;99687.89;2186020;81;21040;-68
2021/06/03 13:50:27;;;;;;;6.77;2.87;;;;;;;29.11;22.29;99689.66;2186266;81;20963;-68
2021/06/03 13:53:28;;;;;;;8.63;2.77;;;;;;;29.41;22.70;99687.66;2186212;81;20960;-68
2021/06/03 13:56:28;;;;;;;10.03;2.95;;;;;;;29.54;21.39;99681.00;2185840;81;21007;-68
2021/06/03 13:59:29;;;;;;;6.53;2.90;;;;;;;29.41;20.68;99689.02;2185793;81;21012;-69
2021/06/03 14:02:29;;;;;;;7.20;2.90;;;;;;;29.08;21.07;99683.27;2186222;81;20972;-66
2021/06/03 14:05:29;;;;;;;11.13;3.10;;;;;;;29.26;21.09;99686.38;2185931;81;20991;-68
2021/06/03 14:08:30;;;;;;;10.00;3.00;;;;;;;29.74;22.45;99691.13;2186072;81;20979;-68
2021/06/03 14:11:37;;;;;;;9.40;2.73;;;;;;;30.37;21.80;99675.34;2186066;81;21537;-68
2021/06/03 14:14:35;;;;;;;9.60;2.77;;;;;;;30.89;21.71;99676.57;2157387;81;21007;-68
2021/06/03 14:17:35;;;;;;;9.55;3.00;;;;;;;31.27;21.77;99679.23;2157285;81;20990;-67
2021/06/03 14:20:36;;;;;;;10.00;3.00;;;;;;;31.37;19.67;99669.34;2185970;81;20976;-68
2021/06/03 14:23:37;;;;;;;7.47;2.70;;;;;;;30.82;19.52;99678.97;2185641;81;21074;-69